Time;durP1;ratioP1;P1;durP2;ratioP2;P2;SDS_P1;SDS_P2;PMS_P1;PMS_P2;Temp;Humidity;BMP_temperature;BMP_pressure;BME280_temperature;BME280_humidity;BME280_pressure;Samples;Min_cycle;Max_cycle;Signal;HPM_P1;HPM_P2
2022/09/14 00:00:42;;;;;;;1.38;0.35;;;13.40;99.90;;;;;;5025953;28;20047;-70
2022/09/14 00:03:07;;;;;;;0.82;0.30;;;13.40;99.90;;;;;;5026115;28;20041;-69
2022/09/14 00:05:36;;;;;;;0.52;0.43;;;13.40;99.90;;;;;;5043947;28;20029;-70
2022/09/14 00:08:03;;;;;;;0.38;0.30;;;13.40;99.90;;;;;;5044269;28;20056;-70
2022/09/14 00:10:30;;;;;;;0.88;0.50;;;13.30;99.90;;;;;;5039230;28;20152;-69
2022/09/14 00:12:56;;;;;;;1.25;0.60;;;13.30;99.90;;;;;;5044531;28;20068;-69
2022/09/14 00:15:22;;;;;;;1.35;0.95;;;13.30;99.90;;;;;;5042632;28;20040;-70
2022/09/14 00:17:47;;;;;;;0.45;0.30;;;13.30;99.90;;;;;;5044024;28;20064;-70
2022/09/14 00:20:13;;;;;;;0.17;0.17;;;13.30;99.90;;;;;;5043644;28;20091;-69
2022/09/14 00:22:38;;;;;;;0.50;0.38;;;13.20;99.90;;;;;;5043289;28;20041;-69
2022/09/14 00:25:05;;;;;;;0.50;0.20;;;13.20;99.90;;;;;;5025221;28;20086;-70
2022/09/14 00:27:31;;;;;;;0.22;0.20;;;13.20;99.90;;;;;;5044508;28;20121;-69
2022/09/14 00:29:57;;;;;;;0.50;0.30;;;13.20;99.90;;;;;;5043978;28;20045;-69
2022/09/14 00:32:22;;;;;;;1.58;0.88;;;13.20;99.90;;;;;;5044110;28;20071;-70
2022/09/14 00:34:48;;;;;;;0.90;0.43;;;13.20;99.90;;;;;;5042866;28;20037;-69
2022/09/14 00:37:14;;;;;;;0.38;0.30;;;13.20;99.90;;;;;;5041257;28;20043;-70
2022/09/14 00:39:39;;;;;;;0.60;0.30;;;13.20;99.90;;;;;;5043517;28;20168;-69
2022/09/14 00:42:05;;;;;;;1.05;0.65;;;13.30;99.90;;;;;;5044143;28;20624;-69
2022/09/14 00:44:31;;;;;;;0.77;0.38;;;13.30;99.90;;;;;;5041609;28;20029;-70
2022/09/14 00:46:59;;;;;;;1.02;0.60;;;13.30;99.90;;;;;;5043790;28;20052;-69
2022/09/14 00:49:33;;;;;;;0.52;0.28;;;13.30;99.90;;;;;;5043309;28;20043;-70
2022/09/14 00:52:08;;;;;;;0.52;0.38;;;13.30;99.90;;;;;;5037081;28;20592;-70
2022/09/14 00:54:35;;;;;;;;;;;13.20;99.90;;;;;;5045405;28;20498;-70
2022/09/14 00:57:02;;;;;;;0.60;0.40;;;13.20;99.90;;;;;;5025079;28;19916;-69
2022/09/14 00:59:32;;;;;;;3.67;0.68;;;13.20;99.90;;;;;;5026032;28;20032;-70
2022/09/14 01:01:57;;;;;;;0.70;0.60;;;13.20;99.90;;;;;;5043410;28;20112;-69
2022/09/14 01:04:23;;;;;;;3.30;0.60;;;13.20;99.90;;;;;;5042772;28;20163;-70
2022/09/14 01:07:05;;;;;;;0.88;0.50;;;13.20;99.90;;;;;;5041723;28;20029;-69
2022/09/14 01:09:54;;;;;;;0.80;0.30;;;13.20;99.90;;;;;;5042790;28;20049;-70
2022/09/14 01:12:58;;;;;;;0.75;0.30;;;13.30;99.90;;;;;;5043129;28;20040;-69
2022/09/14 01:15:37;;;;;;;1.02;0.40;;;13.20;99.90;;;;;;5047082;28;20044;-69
2022/09/14 01:18:24;;;;;;;1.40;0.60;;;13.20;99.90;;;;;;5046230;28;20086;-69
2022/09/14 01:20:57;;;;;;;0.93;0.50;;;13.20;99.90;;;;;;5044039;28;20722;-69
2022/09/14 01:24:10;;;;;;;1.70;0.40;;;13.20;99.90;;;;;;5044748;28;20037;-69
2022/09/14 01:27:21;;;;;;;0.95;0.40;;;13.20;99.90;;;;;;5024184;28;20053;-70
2022/09/14 01:30:17;;;;;;;1.08;0.40;;;13.30;99.90;;;;;;5024554;28;20910;-69
2022/09/14 01:32:47;;;;;;;0.30;0.28;;;13.30;99.90;;;;;;5030857;28;20055;-70
2022/09/14 01:35:28;;;;;;;0.73;0.30;;;13.30;99.90;;;;;;5046745;28;20036;-69
2022/09/14 01:38:09;;;;;;;1.77;0.70;;;13.30;99.90;;;;;;5042960;28;20059;-69
2022/09/14 01:40:44;;;;;;;0.82;0.50;;;13.30;99.90;;;;;;5043257;28;20116;-69
2022/09/14 01:43:31;;;;;;;0.68;0.32;;;13.30;99.90;;;;;;5011542;28;20083;-69
2022/09/14 01:46:03;;;;;;;0.43;0.30;;;13.30;99.90;;;;;;5046554;28;20036;-69
2022/09/14 01:48:37;;;;;;;0.73;0.50;;;13.20;99.90;;;;;;5046988;28;20513;-70
2022/09/14 01:51:07;;;;;;;0.80;0.43;;;13.20;99.90;;;;;;5050152;28;20048;-69
2022/09/14 01:53:41;;;;;;;1.40;0.60;;;13.20;99.90;;;;;;5048596;28;20098;-69
2022/09/14 01:56:20;;;;;;;1.27;0.63;;;13.20;99.90;;;;;;5051054;28;20079;-69
2022/09/14 01:58:56;;;;;;;1.52;0.60;;;13.20;99.90;;;;;;5049836;28;20120;-69
2022/09/14 02:01:28;;;;;;;1.58;0.70;;;13.20;99.90;;;;;;5051843;28;20125;-69
2022/09/14 02:04:01;;;;;;;0.68;0.40;;;13.20;99.90;;;;;;5051104;28;20083;-69
2022/09/14 02:06:39;;;;;;;2.97;0.50;;;13.20;99.90;;;;;;5049584;28;20033;-69
2022/09/14 02:09:09;;;;;;;0.60;0.40;;;13.20;99.90;;;;;;5032737;28;20094;-69
2022/09/14 02:11:34;;;;;;;1.00;0.68;;;13.20;99.90;;;;;;5050107;28;20531;-70
2022/09/14 02:14:00;;;;;;;1.50;0.68;;;13.20;99.90;;;;;;5052577;28;20037;-70
2022/09/14 02:16:26;;;;;;;0.47;0.30;;;13.20;99.90;;;;;;5029555;28;20120;-69
2022/09/14 02:18:52;;;;;;;0.77;0.43;;;13.20;99.90;;;;;;5048968;28;20131;-69
2022/09/14 02:21:23;;;;;;;1.35;0.50;;;13.20;99.90;;;;;;5032463;28;20124;-69
2022/09/14 02:23:50;;;;;;;0.47;0.38;;;13.20;99.90;;;;;;5051204;28;20492;-69
2022/09/14 02:26:17;;;;;;;3.63;0.40;;;13.20;99.90;;;;;;5048100;28;20667;-69
2022/09/14 02:28:43;;;;;;;0.50;0.35;;;13.20;99.90;;;;;;5048164;28;20037;-69
2022/09/14 02:31:46;;;;;;;0.60;0.43;;;13.10;99.90;;;;;;5050632;28;20132;-69
2022/09/14 02:34:48;;;;;;;1.85;0.40;;;13.10;99.90;;;;;;5041276;28;20045;-69
2022/09/14 02:37:31;;;;;;;0.63;0.40;;;13.00;99.90;;;;;;5031898;28;20045;-69
2022/09/14 02:40:03;;;;;;;0.80;0.50;;;13.00;99.90;;;;;;5049342;28;20048;-69
2022/09/14 02:42:35;;;;;;;0.28;0.28;;;13.00;99.90;;;;;;5047790;28;20041;-69
2022/09/14 02:45:26;;;;;;;0.40;0.30;;;13.00;99.90;;;;;;5049065;28;20052;-69
2022/09/14 02:48:11;;;;;;;0.65;0.40;;;13.00;99.90;;;;;;5015206;28;20524;-69
2022/09/14 02:50:54;;;;;;;0.55;0.40;;;13.00;99.90;;;;;;5031871;28;20037;-69
2022/09/14 02:53:34;;;;;;;0.65;0.45;;;13.10;99.90;;;;;;5049518;28;20121;-69
2022/09/14 02:56:03;;;;;;;2.05;0.50;;;13.10;99.90;;;;;;5048016;28;20510;-69
2022/09/14 02:58:38;;;;;;;7.90;0.45;;;13.10;99.90;;;;;;5048232;28;20044;-69
2022/09/14 03:01:05;;;;;;;0.60;0.30;;;13.10;99.90;;;;;;5049777;28;20045;-69
2022/09/14 03:03:31;;;;;;;1.05;0.70;;;13.10;99.90;;;;;;5050805;28;20033;-70
2022/09/14 03:05:57;;;;;;;0.28;0.22;;;13.10;99.90;;;;;;5013589;28;20033;-70
2022/09/14 03:08:26;;;;;;;0.77;0.50;;;13.10;99.90;;;;;;5049992;28;20083;-69
2022/09/14 03:10:52;;;;;;;0.30;0.20;;;13.20;99.90;;;;;;5048391;28;20033;-69
2022/09/14 03:13:17;;;;;;;1.02;0.30;;;13.10;99.90;;;;;;5047227;28;20064;-70
2022/09/14 03:15:43;;;;;;;1.58;0.50;;;13.20;99.90;;;;;;5048337;28;20051;-69
2022/09/14 03:18:09;;;;;;;0.30;0.30;;;13.10;99.90;;;;;;5049907;28;20074;-70
2022/09/14 03:20:35;;;;;;;0.10;0.10;;;13.10;99.90;;;;;;5048891;28;20517;-69
2022/09/14 03:23:02;;;;;;;0.90;0.40;;;13.10;99.90;;;;;;5050559;28;20083;-70
2022/09/14 03:25:28;;;;;;;1.40;0.40;;;13.10;99.90;;;;;;5050236;28;20080;-69
2022/09/14 03:27:58;;;;;;;0.85;0.50;;;13.10;99.90;;;;;;5047992;28;20051;-70
2022/09/14 03:30:25;;;;;;;0.88;0.40;;;13.10;99.90;;;;;;5029903;28;20055;-70
2022/09/14 03:32:50;;;;;;;0.40;0.40;;;13.20;99.90;;;;;;5016927;28;20128;-70
2022/09/14 03:35:17;;;;;;;0.88;0.70;;;13.20;99.90;;;;;;5048455;28;20132;-70
2022/09/14 03:37:43;;;;;;;1.55;0.40;;;13.20;99.90;;;;;;5049326;28;20044;-70
2022/09/14 03:40:11;;;;;;;0.80;0.28;;;13.20;99.90;;;;;;5047182;28;20498;-69
2022/09/14 03:42:42;;;;;;;2.75;0.50;;;13.30;99.90;;;;;;5047036;28;20055;-69
2022/09/14 03:45:09;;;;;;;0.45;0.45;;;13.30;99.90;;;;;;5046592;28;20041;-70
2022/09/14 03:47:34;;;;;;;3.20;0.60;;;13.30;99.90;;;;;;5048226;28;20048;-70
2022/09/14 03:50:00;;;;;;;0.47;0.30;;;13.30;99.90;;;;;;5046147;28;20551;-70
2022/09/14 03:52:26;;;;;;;0.95;0.40;;;13.30;99.90;;;;;;5048435;28;20072;-70
2022/09/14 03:54:51;;;;;;;0.85;0.40;;;13.30;99.90;;;;;;5048885;28;20060;-70
2022/09/14 03:57:17;;;;;;;0.47;0.30;;;13.30;99.90;;;;;;5047928;28;20037;-70
2022/09/14 03:59:42;;;;;;;0.30;0.30;;;13.30;99.90;;;;;;5045905;28;20432;-69
2022/09/14 04:02:08;;;;;;;1.00;0.50;;;13.30;99.90;;;;;;5030688;28;20029;-70
2022/09/14 04:04:33;;;;;;;0.40;0.30;;;13.30;99.90;;;;;;5049330;28;20041;-70
2022/09/14 04:06:59;;;;;;;3.13;0.63;;;13.30;99.90;;;;;;5047656;28;20088;-70
2022/09/14 04:09:25;;;;;;;0.50;0.38;;;13.30;99.90;;;;;;5047993;28;20192;-70
2022/09/14 04:11:50;;;;;;;2.47;1.13;;;13.30;99.90;;;;;;5045654;28;20033;-69
2022/09/14 04:14:16;;;;;;;1.08;0.55;;;13.30;99.90;;;;;;5047655;28;20132;-70
2022/09/14 04:16:43;;;;;;;2.25;0.50;;;13.30;99.90;;;;;;5028779;28;20040;-70
2022/09/14 04:19:11;;;;;;;0.73;0.43;;;13.30;99.90;;;;;;5048769;28;20045;-70
2022/09/14 04:21:37;;;;;;;1.17;0.40;;;13.40;99.90;;;;;;5047083;28;20032;-70
2022/09/14 04:24:03;;;;;;;0.63;0.40;;;13.30;99.90;;;;;;5045225;28;20091;-70
2022/09/14 04:26:29;;;;;;;0.98;0.50;;;13.30;99.90;;;;;;5047535;28;20040;-70
2022/09/14 04:28:56;;;;;;;0.75;0.40;;;13.30;99.90;;;;;;5046903;28;20037;-69
2022/09/14 04:31:23;;;;;;;0.40;0.30;;;13.30;99.90;;;;;;5048968;28;20036;-70
2022/09/14 04:33:49;;;;;;;0.40;0.30;;;13.30;99.90;;;;;;5033207;28;20052;-70
2022/09/14 04:36:21;;;;;;;0.65;0.40;;;13.40;99.90;;;;;;5047262;28;20040;-70
2022/09/14 04:38:47;;;;;;;0.63;0.38;;;13.40;99.90;;;;;;5047172;28;20590;-70
2022/09/14 04:41:17;;;;;;;1.10;0.60;;;13.40;99.90;;;;;;5045786;28;20037;-70
2022/09/14 04:43:44;;;;;;;1.23;0.60;;;13.40;99.90;;;;;;5047268;28;20040;-70
2022/09/14 04:46:14;;;;;;;0.43;0.30;;;13.40;99.90;;;;;;5048503;28;20052;-69
2022/09/14 04:48:41;;;;;;;0.65;0.38;;;13.40;99.90;;;;;;5046813;28;20338;-69
2022/09/14 04:51:09;;;;;;;1.15;0.30;;;13.40;99.90;;;;;;5047054;28;20040;-70
2022/09/14 04:53:37;;;;;;;0.95;0.43;;;13.40;99.90;;;;;;5046953;28;20079;-70
2022/09/14 04:56:05;;;;;;;3.65;0.63;;;13.40;99.90;;;;;;5047663;28;20037;-70
2022/09/14 04:58:32;;;;;;;2.00;0.45;;;13.40;99.90;;;;;;5040523;28;20033;-70
2022/09/14 05:01:07;;;;;;;3.42;0.50;;;13.40;99.90;;;;;;5027736;28;20127;-70
2022/09/14 05:03:32;;;;;;;0.60;0.40;;;13.40;99.90;;;;;;5029792;28;20044;-70
2022/09/14 05:06:02;;;;;;;0.68;0.38;;;13.40;99.90;;;;;;5044239;28;20461;-70
2022/09/14 05:08:29;;;;;;;0.50;0.47;;;13.40;99.90;;;;;;5047828;28;20068;-70
2022/09/14 05:10:55;;;;;;;0.40;0.20;;;13.40;99.90;;;;;;5024661;28;20037;-70
2022/09/14 05:13:22;;;;;;;0.50;0.35;;;13.40;99.90;;;;;;5044981;28;20448;-70
2022/09/14 05:15:48;;;;;;;0.85;0.70;;;13.50;99.90;;;;;;5043129;28;20079;-70
2022/09/14 05:18:13;;;;;;;0.40;0.30;;;13.50;99.90;;;;;;5022471;28;20668;-70
2022/09/14 05:20:39;;;;;;;1.27;0.60;;;13.50;99.90;;;;;;5042174;28;20041;-70
2022/09/14 05:23:04;;;;;;;1.67;0.60;;;13.50;99.90;;;;;;5043975;28;20502;-70
2022/09/14 05:25:30;;;;;;;0.40;0.30;;;13.50;99.90;;;;;;5043114;28;20037;-70
2022/09/14 05:27:56;;;;;;;1.17;0.45;;;13.50;99.90;;;;;;5042542;28;20041;-70
2022/09/14 05:30:22;;;;;;;0.75;0.32;;;13.50;99.90;;;;;;5043267;28;20047;-70
2022/09/14 05:32:47;;;;;;;0.50;0.30;;;13.50;99.90;;;;;;5044433;28;20041;-70
2022/09/14 05:35:13;;;;;;;0.90;0.35;;;13.50;99.90;;;;;;5039098;28;20043;-70
2022/09/14 05:37:38;;;;;;;0.55;0.30;;;13.50;99.90;;;;;;5040124;28;20443;-69
2022/09/14 05:40:05;;;;;;;0.73;0.30;;;13.50;99.90;;;;;;5043509;28;20059;-70
2022/09/14 05:42:31;;;;;;;0.43;0.30;;;13.50;99.90;;;;;;5041904;28;20036;-70
2022/09/14 05:44:57;;;;;;;0.35;0.20;;;13.50;99.90;;;;;;5044086;28;20036;-70
2022/09/14 05:47:22;;;;;;;3.92;0.60;;;13.50;99.90;;;;;;5039968;28;20086;-70
2022/09/14 05:49:48;;;;;;;1.27;0.63;;;13.60;99.90;;;;;;5037687;28;20053;-70
2022/09/14 05:52:13;;;;;;;0.68;0.43;;;13.60;99.90;;;;;;5042286;28;20102;-70
2022/09/14 05:54:39;;;;;;;1.42;0.70;;;13.60;99.90;;;;;;5024667;28;20040;-71
2022/09/14 05:57:04;;;;;;;1.25;0.60;;;13.60;99.90;;;;;;5043320;28;20041;-71
2022/09/14 05:59:30;;;;;;;6.53;0.70;;;13.70;99.90;;;;;;5047305;28;20037;-70
2022/09/14 06:01:57;;;;;;;2.80;0.52;;;13.70;99.90;;;;;;5045168;28;20045;-71
2022/09/14 06:04:23;;;;;;;1.75;0.43;;;13.70;99.90;;;;;;5045659;28;20398;-71
2022/09/14 06:06:49;;;;;;;1.42;0.40;;;13.70;99.90;;;;;;5040478;28;20120;-71
2022/09/14 06:09:15;;;;;;;0.98;0.40;;;13.70;99.90;;;;;;5044286;28;20697;-70
2022/09/14 06:11:41;;;;;;;4.70;0.85;;;13.70;99.90;;;;;;5044729;28;20047;-71
2022/09/14 06:14:06;;;;;;;2.95;0.30;;;13.70;99.90;;;;;;5027121;28;20155;-74
2022/09/14 06:16:32;;;;;;;1.83;0.88;;;13.70;99.90;;;;;;5044994;28;20035;-70
2022/09/14 06:18:59;;;;;;;0.20;0.13;;;13.70;99.90;;;;;;5043365;28;20048;-71
2022/09/14 06:21:31;;;;;;;1.23;0.55;;;13.80;99.90;;;;;;5047509;28;20398;-70
2022/09/14 06:23:57;;;;;;;0.70;0.40;;;13.80;99.90;;;;;;5045337;28;20033;-71
2022/09/14 06:26:24;;;;;;;0.80;0.50;;;13.80;99.90;;;;;;5026854;28;20037;-70
2022/09/14 06:28:50;;;;;;;1.15;0.60;;;13.80;99.90;;;;;;5045383;28;20490;-70
2022/09/14 06:31:17;;;;;;;0.70;0.50;;;13.90;99.90;;;;;;5051197;28;20119;-71
2022/09/14 06:33:46;;;;;;;1.48;0.70;;;13.90;99.90;;;;;;5050842;28;20036;-71
2022/09/14 06:36:18;;;;;;;0.60;0.40;;;13.90;99.90;;;;;;5046968;28;20044;-71
2022/09/14 06:38:45;;;;;;;0.95;0.50;;;14.00;99.90;;;;;;5048490;28;20056;-71
2022/09/14 06:41:13;;;;;;;4.28;1.17;;;14.00;99.90;;;;;;5049441;28;20033;-71
2022/09/14 06:43:40;;;;;;;1.42;0.50;;;14.00;99.90;;;;;;5049528;28;20321;-71
2022/09/14 06:46:13;;;;;;;0.70;0.45;;;14.10;99.90;;;;;;5050250;28;20045;-71
2022/09/14 06:48:45;;;;;;;1.80;0.50;;;14.10;99.90;;;;;;5050595;28;20059;-71
2022/09/14 06:51:20;;;;;;;0.73;0.43;;;14.10;99.90;;;;;;5049084;28;20087;-71
2022/09/14 06:53:47;;;;;;;0.40;0.30;;;14.20;99.90;;;;;;5035894;28;20242;-71
2022/09/14 06:56:13;;;;;;;0.85;0.25;;;14.20;99.90;;;;;;5049804;28;20056;-71
2022/09/14 06:58:39;;;;;;;4.15;0.35;;;14.20;99.90;;;;;;5047461;28;20137;-71
2022/09/14 07:01:10;;;;;;;0.55;0.40;;;14.30;99.90;;;;;;5031876;28;20037;-71
2022/09/14 07:03:37;;;;;;;0.68;0.50;;;14.30;99.90;;;;;;5047176;28;20047;-71
2022/09/14 07:06:05;;;;;;;0.77;0.50;;;14.40;99.90;;;;;;5047917;28;20494;-71
2022/09/14 07:08:32;;;;;;;1.02;0.52;;;14.40;99.90;;;;;;5045975;28;20056;-70
2022/09/14 07:10:58;;;;;;;0.95;0.43;;;14.40;99.90;;;;;;5048523;28;20101;-72
2022/09/14 07:13:24;;;;;;;3.80;0.70;;;14.50;99.90;;;;;;5029364;28;20036;-71
2022/09/14 07:15:50;;;;;;;0.52;0.28;;;14.40;99.90;;;;;;5047827;28;20497;-71
2022/09/14 07:18:16;;;;;;;0.63;0.30;;;14.50;99.90;;;;;;5045751;28;20133;-71
2022/09/14 07:20:42;;;;;;;0.70;0.47;;;14.50;99.90;;;;;;5045187;28;20048;-71
2022/09/14 07:23:07;;;;;;;0.85;0.57;;;14.60;99.90;;;;;;5031322;28;20090;-71
2022/09/14 07:25:33;;;;;;;1.42;0.50;;;14.60;99.90;;;;;;5048080;28;20521;-71
2022/09/14 07:28:00;;;;;;;3.13;0.50;;;14.60;99.90;;;;;;5048046;28;20113;-71
2022/09/14 07:30:27;;;;;;;1.25;0.47;;;14.60;99.90;;;;;;5047643;28;20047;-70
2022/09/14 07:32:53;;;;;;;0.98;0.50;;;14.70;99.90;;;;;;5013984;28;20048;-71
2022/09/14 07:35:19;;;;;;;1.35;0.70;;;14.70;99.90;;;;;;5027875;28;20067;-71
2022/09/14 07:37:45;;;;;;;8.18;0.55;;;14.70;99.90;;;;;;5048288;28;20047;-70
2022/09/14 07:40:11;;;;;;;1.65;0.50;;;14.70;99.90;;;;;;5049666;28;20029;-71
2022/09/14 07:42:37;;;;;;;2.17;0.90;;;14.80;99.90;;;;;;5032659;28;20125;-71
2022/09/14 07:45:04;;;;;;;2.38;0.52;;;14.80;99.90;;;;;;5047183;28;20368;-70
2022/09/14 07:47:30;;;;;;;1.27;0.90;;;14.80;99.90;;;;;;5048941;28;20557;-71
2022/09/14 07:49:56;;;;;;;2.20;0.57;;;14.80;99.90;;;;;;5046408;28;20048;-71
2022/09/14 07:52:22;;;;;;;1.00;0.40;;;14.90;99.90;;;;;;5007010;28;20395;-71
2022/09/14 07:54:47;;;;;;;3.42;0.80;;;14.90;99.90;;;;;;5027093;28;20033;-70
2022/09/14 07:57:13;;;;;;;2.60;0.60;;;14.90;99.90;;;;;;5047646;28;20163;-71
2022/09/14 07:59:39;;;;;;;5.75;0.90;;;14.90;99.90;;;;;;5037674;28;20063;-71
2022/09/14 08:02:09;;;;;;;1.67;0.70;;;15.00;99.90;;;;;;5023373;28;20487;-70
2022/09/14 08:04:38;;;;;;;2.08;0.55;;;15.00;99.90;;;;;;5027416;28;20062;-70
2022/09/14 08:07:04;;;;;;;2.47;0.85;;;15.00;99.90;;;;;;5022986;28;20056;-70
2022/09/14 08:09:29;;;;;;;2.20;0.70;;;15.10;99.90;;;;;;5042887;28;20041;-70
2022/09/14 08:11:56;;;;;;;2.10;0.73;;;15.10;99.90;;;;;;5045406;28;20032;-71
2022/09/14 08:14:21;;;;;;;1.25;0.60;;;15.20;99.90;;;;;;5046054;28;20084;-70
2022/09/14 08:16:47;;;;;;;2.58;0.85;;;15.20;99.90;;;;;;5040445;28;20135;-70
2022/09/14 08:19:15;;;;;;;0.90;0.55;;;15.30;99.90;;;;;;5043109;28;20454;-70
2022/09/14 08:21:42;;;;;;;1.70;0.73;;;15.30;99.90;;;;;;5040487;28;20040;-70
2022/09/14 08:24:10;;;;;;;1.73;0.63;;;15.40;99.90;;;;;;5039266;28;21863;-70
2022/09/14 08:26:36;;;;;;;1.83;0.65;;;15.40;99.90;;;;;;5040720;28;20115;-70
2022/09/14 08:29:03;;;;;;;2.67;0.65;;;15.50;99.90;;;;;;5040832;28;20123;-70
2022/09/14 08:31:30;;;;;;;0.95;0.40;;;15.50;99.90;;;;;;5041481;28;20048;-71
2022/09/14 08:33:59;;;;;;;1.08;0.55;;;15.50;99.90;;;;;;5037444;28;20036;-71
2022/09/14 08:36:32;;;;;;;2.65;0.60;;;15.50;99.90;;;;;;5041504;28;20052;-70
2022/09/14 08:38:59;;;;;;;1.05;0.57;;;15.60;99.90;;;;;;5041177;28;20093;-70
2022/09/14 08:41:46;;;;;;;1.23;0.70;;;15.70;99.90;;;;;;5038745;28;20526;-71
2022/09/14 08:44:23;;;;;;;0.75;0.52;;;15.80;99.90;;;;;;5024851;28;20044;-70
2022/09/14 08:47:02;;;;;;;3.83;0.55;;;15.90;99.90;;;;;;5042601;28;20128;-71
2022/09/14 08:49:41;;;;;;;0.75;0.50;;;15.90;99.90;;;;;;5040165;28;20545;-71
2022/09/14 08:52:33;;;;;;;1.13;0.40;;;15.90;99.90;;;;;;5041438;28;20115;-71
2022/09/14 08:55:01;;;;;;;0.77;0.50;;;16.10;99.90;;;;;;5026473;28;20044;-71
2022/09/14 08:57:34;;;;;;;1.17;0.50;;;16.10;99.90;;;;;;5023331;28;20136;-71
2022/09/14 09:00:23;;;;;;;0.55;0.20;;;16.10;99.90;;;;;;5006847;28;20176;-71
2022/09/14 09:03:19;;;;;;;0.63;0.40;;;16.20;99.90;;;;;;5040331;28;20037;-70
2022/09/14 09:05:51;;;;;;;;;;;16.30;99.90;;;;;;5040339;28;20037;-70
2022/09/14 09:08:33;;;;;;;1.35;0.80;;;16.30;99.90;;;;;;5039768;28;20442;-71
2022/09/14 09:11:00;;;;;;;0.85;0.30;;;16.30;99.90;;;;;;5038082;28;20036;-70
2022/09/14 09:13:30;;;;;;;0.65;0.20;;;16.30;99.90;;;;;;5021146;28;20041;-71
2022/09/14 09:16:00;;;;;;;0.77;0.30;;;16.40;99.90;;;;;;5034895;28;20045;-70
2022/09/14 09:18:49;;;;;;;2.05;0.22;;;16.40;99.90;;;;;;5038879;28;20041;-70
2022/09/14 09:21:16;;;;;;;0.60;0.20;;;16.40;99.90;;;;;;5040592;28;20541;-70
2022/09/14 09:23:42;;;;;;;1.13;0.10;;;16.40;99.90;;;;;;5042042;28;20037;-70
2022/09/14 09:26:30;;;;;;;0.80;0.22;;;16.40;99.90;;;;;;5021573;28;20445;-71
2022/09/14 09:28:58;;;;;;;0.98;0.40;;;16.50;99.90;;;;;;5040738;28;20095;-71
2022/09/14 09:31:44;;;;;;;2.10;0.75;;;16.50;99.90;;;;;;5045620;28;20040;-70
2022/09/14 09:34:13;;;;;;;0.73;0.20;;;16.50;99.90;;;;;;5027326;28;20040;-70
2022/09/14 09:36:41;;;;;;;1.38;0.20;;;16.50;99.90;;;;;;5044676;28;20110;-71
2022/09/14 09:39:07;;;;;;;2.97;0.40;;;16.50;99.90;;;;;;5046291;28;20458;-71
2022/09/14 09:41:47;;;;;;;2.10;0.13;;;16.50;99.90;;;;;;5045017;28;20120;-71
2022/09/14 09:44:13;;;;;;;0.00;0.00;;;16.50;99.90;;;;;;5043795;28;20037;-70
2022/09/14 09:46:46;;;;;;;0.05;0.03;;;16.50;99.90;;;;;;5049698;28;20041;-71
2022/09/14 09:49:17;;;;;;;1.73;0.28;;;16.50;99.90;;;;;;5027386;28;20044;-71
2022/09/14 09:51:43;;;;;;;0.90;0.28;;;16.50;99.90;;;;;;5040819;28;20040;-71
2022/09/14 09:54:12;;;;;;;0.52;0.25;;;16.50;99.90;;;;;;5045585;28;20037;-71
2022/09/14 09:56:59;;;;;;;0.40;0.30;;;16.50;99.90;;;;;;5028329;28;20037;-71
2022/09/14 09:59:40;;;;;;;0.80;0.20;;;16.50;99.90;;;;;;5042609;28;20327;-71
2022/09/14 10:02:24;;;;;;;0.32;0.10;;;16.50;99.90;;;;;;5044059;28;20036;-71
2022/09/14 10:05:17;;;;;;;0.55;0.20;;;16.60;99.90;;;;;;5021520;28;20033;-71
2022/09/14 10:07:48;;;;;;;0.73;0.32;;;16.60;99.90;;;;;;5045312;28;20059;-70
2022/09/14 10:10:17;;;;;;;0.10;0.10;;;16.70;99.90;;;;;;5041631;28;20491;-70
2022/09/14 10:12:54;;;;;;;0.30;0.10;;;16.70;99.90;;;;;;5041690;28;20037;-71
2022/09/14 10:15:27;;;;;;;1.80;0.20;;;16.80;99.90;;;;;;5028219;28;20094;-70
2022/09/14 10:18:06;;;;;;;0.93;0.28;;;16.90;99.90;;;;;;5043692;28;20562;-71
2022/09/14 10:20:32;;;;;;;1.77;0.10;;;16.90;99.90;;;;;;5045917;28;20035;-71
2022/09/14 10:23:17;;;;;;;0.65;0.20;;;17.00;99.90;;;;;;5047316;28;20115;-71
2022/09/14 10:25:47;;;;;;;0.30;0.13;;;17.00;99.90;;;;;;5048293;28;20382;-71
2022/09/14 10:28:25;;;;;;;1.80;0.40;;;17.10;99.90;;;;;;5045597;28;20086;-71
2022/09/14 10:31:01;;;;;;;1.30;0.15;;;17.10;99.90;;;;;;5027187;28;22372;-71
2022/09/14 10:33:28;;;;;;;0.38;0.20;;;17.10;99.90;;;;;;5043543;28;20156;-70
2022/09/14 10:36:13;;;;;;;0.10;0.10;;;17.10;99.90;;;;;;5044667;28;20095;-71
2022/09/14 10:38:42;;;;;;;0.67;0.20;;;17.20;99.90;;;;;;5044574;28;20495;-71
2022/09/14 10:41:50;;;;;;;1.75;0.10;;;17.20;99.90;;;;;;5043327;28;20671;-71
2022/09/14 10:44:42;;;;;;;0.38;0.05;;;17.20;99.90;;;;;;5043101;28;20574;-71
2022/09/14 10:47:14;;;;;;;0.55;0.20;;;17.30;99.90;;;;;;5026719;28;20041;-71
2022/09/14 10:49:58;;;;;;;1.40;0.30;;;17.30;99.90;;;;;;5041490;28;20045;-71
2022/09/14 10:52:57;;;;;;;0.30;0.30;;;17.30;99.90;;;;;;5040515;28;20049;-70
2022/09/14 10:55:33;;;;;;;2.72;0.10;;;17.30;99.90;;;;;;5045177;28;20509;-68
2022/09/14 10:58:32;;;;;;;0.55;0.20;;;17.40;99.90;;;;;;5043551;28;20041;-71
2022/09/14 11:01:16;;;;;;;1.02;0.10;;;17.40;99.90;;;;;;5023514;28;20536;-71
2022/09/14 11:04:06;;;;;;;0.00;0.00;;;17.50;99.90;;;;;;5045633;28;20333;-71
2022/09/14 11:06:50;;;;;;;0.98;0.22;;;17.50;99.90;;;;;;5043030;28;20513;-71
2022/09/14 11:09:19;;;;;;;0.28;0.17;;;17.50;99.90;;;;;;5040597;28;20057;-71
2022/09/14 11:12:13;;;;;;;1.98;0.20;;;17.60;99.90;;;;;;5042255;28;20068;-71
2022/09/14 11:14:57;;;;;;;0.93;0.10;;;17.60;99.90;;;;;;4997222;28;20053;-71
2022/09/14 11:17:50;;;;;;;2.22;0.38;;;17.50;99.90;;;;;;5042026;28;20072;-71
2022/09/14 11:20:24;;;;;;;2.13;0.35;;;17.60;99.90;;;;;;5038650;28;20127;-71
2022/09/14 11:23:22;;;;;;;2.35;0.40;;;17.70;99.90;;;;;;5041547;28;20048;-71
2022/09/14 11:25:59;;;;;;;1.38;0.28;;;17.70;99.90;;;;;;5041732;28;20041;-71
2022/09/14 11:28:50;;;;;;;0.35;0.10;;;17.70;99.90;;;;;;5041298;28;20048;-70
2022/09/14 11:31:23;;;;;;;0.43;0.10;;;17.80;99.90;;;;;;5039496;28;20119;-71
2022/09/14 11:34:12;;;;;;;0.40;0.13;;;17.80;99.90;;;;;;5023772;28;20080;-70
2022/09/14 11:36:46;;;;;;;1.02;0.30;;;17.80;99.90;;;;;;5039546;28;20045;-71
2022/09/14 11:39:29;;;;;;;0.77;0.20;;;18.00;99.90;;;;;;5040159;28;20156;-70
2022/09/14 11:42:08;;;;;;;0.10;0.10;;;18.00;99.90;;;;;;5022371;28;20049;-70
2022/09/14 11:44:38;;;;;;;0.75;0.32;;;18.10;99.90;;;;;;5038923;28;20041;-71
2022/09/14 11:47:17;;;;;;;0.77;0.28;;;18.20;99.90;;;;;;5037156;28;20113;-71
2022/09/14 11:50:14;;;;;;;0.47;0.20;;;18.30;99.90;;;;;;5041346;28;20458;-71
2022/09/14 11:52:40;;;;;;;0.90;0.20;;;18.40;99.90;;;;;;5041409;28;20073;-71
2022/09/14 11:55:14;;;;;;;0.10;0.10;;;18.40;99.90;;;;;;5038872;28;20124;-71
2022/09/14 11:57:43;;;;;;;0.20;0.10;;;18.40;99.90;;;;;;5018997;28;20045;-71
2022/09/14 12:00:47;;;;;;;0.30;0.10;;;18.30;99.90;;;;;;5022941;28;20052;-71
2022/09/14 12:03:21;;;;;;;1.27;0.20;;;18.30;99.90;;;;;;5040874;28;20041;-71
2022/09/14 12:05:48;;;;;;;0.10;0.10;;;18.30;99.90;;;;;;5040983;28;20974;-71
2022/09/14 12:08:25;;;;;;;0.40;0.20;;;18.30;99.90;;;;;;5042979;28;20114;-71
2022/09/14 12:11:09;;;;;;;1.70;0.40;;;18.20;99.90;;;;;;5039015;28;20045;-71
2022/09/14 12:13:38;;;;;;;1.35;0.30;;;18.20;99.90;;;;;;5035645;28;20499;-71
2022/09/14 12:16:08;;;;;;;0.80;0.35;;;18.20;99.90;;;;;;5037063;28;20163;-71
2022/09/14 12:18:39;;;;;;;1.42;0.17;;;18.10;99.90;;;;;;5025421;28;20033;-71
2022/09/14 12:21:26;;;;;;;0.57;0.17;;;18.20;99.90;;;;;;5037833;28;20415;-71
2022/09/14 12:23:56;;;;;;;0.15;0.10;;;18.10;99.90;;;;;;5042089;28;20040;-71
2022/09/14 12:26:33;;;;;;;0.63;0.20;;;18.10;99.90;;;;;;5005785;28;20495;-71
2022/09/14 12:29:06;;;;;;;0.13;0.10;;;18.20;99.90;;;;;;5040396;28;20537;-70
2022/09/14 12:31:54;;;;;;;3.25;0.20;;;18.20;99.90;;;;;;5043456;28;20090;-71
2022/09/14 12:34:21;;;;;;;0.20;0.15;;;18.10;99.90;;;;;;5036964;28;20160;-71
2022/09/14 12:36:47;;;;;;;0.30;0.17;;;18.20;99.90;;;;;;5038851;28;20060;-71
2022/09/14 12:39:35;;;;;;;0.10;0.10;;;18.30;99.90;;;;;;5039261;28;20041;-71
2022/09/14 12:42:23;;;;;;;0.45;0.20;;;18.40;99.90;;;;;;5035422;28;20091;-71
2022/09/14 12:44:49;;;;;;;1.42;0.30;;;18.40;99.90;;;;;;5034327;28;20060;-71
2022/09/14 12:47:24;;;;;;;0.13;0.10;;;18.40;99.90;;;;;;5037641;28;20036;-71
2022/09/14 12:49:52;;;;;;;0.30;0.20;;;18.40;99.80;;;;;;5037797;28;20040;-71
2022/09/14 12:52:56;;;;;;;0.30;0.10;;;18.50;99.90;;;;;;5036004;28;20033;-71
2022/09/14 12:55:44;;;;;;;0.20;0.15;;;18.40;99.00;;;;;;4996600;28;20084;-71
2022/09/14 12:58:51;;;;;;;1.05;0.22;;;18.50;98.90;;;;;;5033998;28;20455;-71
2022/09/14 13:01:56;;;;;;;0.45;0.20;;;18.50;98.80;;;;;;5031625;28;20097;-71
2022/09/14 13:04:27;;;;;;;0.22;0.10;;;18.50;99.30;;;;;;4995479;28;20064;-71
2022/09/14 13:06:55;;;;;;;0.30;0.20;;;18.50;99.60;;;;;;5013962;28;20045;-71
2022/09/14 13:09:24;;;;;;;0.65;0.15;;;18.60;99.90;;;;;;5040818;28;20051;-71
2022/09/14 13:11:59;;;;;;;1.63;0.30;;;18.50;99.40;;;;;;5037266;28;20056;-71
2022/09/14 13:14:29;;;;;;;0.55;0.20;;;18.60;98.90;;;;;;5037116;28;20465;-71